createdAt,value
2019-03-10T00:01:36.960Z,13.40
2019-03-10T00:04:11.762Z,13.40
2019-03-10T00:06:46.603Z,13.50
2019-03-10T00:09:21.352Z,13.50
2019-03-10T00:11:56.242Z,13.50
2019-03-10T00:14:31.152Z,13.50
2019-03-10T00:17:05.975Z,13.50
2019-03-10T00:19:40.723Z,13.50
2019-03-10T00:22:15.480Z,13.60
2019-03-10T00:24:50.295Z,13.50
2019-03-10T00:27:25.127Z,13.50
2019-03-10T00:30:00.007Z,13.40
2019-03-10T00:32:34.811Z,13.40
2019-03-10T00:35:09.687Z,13.50
2019-03-10T00:37:44.527Z,13.40
2019-03-10T00:40:55.786Z,13.40
2019-03-10T00:44:39.639Z,13.40
2019-03-10T00:48:10.628Z,13.30
2019-03-10T00:51:18.696Z,13.40
2019-03-10T00:53:53.552Z,13.30
2019-03-10T00:56:28.439Z,13.40
2019-03-10T00:59:03.343Z,13.20
2019-03-10T01:01:38.161Z,13.30
2019-03-10T01:04:13.107Z,13.30
2019-03-10T01:06:48.995Z,13.40
2019-03-10T01:09:23.740Z,13.40
2019-03-10T01:11:58.873Z,13.40
2019-03-10T01:14:34.260Z,13.40
2019-03-10T01:17:09.688Z,13.40
2019-03-10T01:19:44.879Z,13.30
2019-03-10T01:22:20.415Z,13.30
2019-03-10T01:24:55.253Z,13.40
2019-03-10T01:27:30.150Z,13.40
2019-03-10T01:30:06.639Z,13.40
2019-03-10T01:33:17.052Z,13.50
2019-03-10T01:35:51.802Z,13.50
2019-03-10T01:38:26.564Z,13.50
2019-03-10T01:41:01.323Z,13.50
2019-03-10T01:43:36.124Z,13.50
2019-03-10T01:46:10.939Z,13.50
2019-03-10T01:48:45.712Z,13.50
2019-03-10T01:51:20.462Z,13.40
2019-03-10T01:53:55.319Z,13.40
2019-03-10T01:56:30.081Z,13.40
2019-03-10T01:59:04.916Z,13.40
2019-03-10T02:01:39.728Z,13.40
2019-03-10T02:04:14.555Z,13.50
2019-03-10T02:06:49.303Z,13.50
2019-03-10T02:09:24.068Z,13.40
2019-03-10T02:11:58.827Z,13.50
2019-03-10T02:14:33.567Z,13.50
2019-03-10T02:17:09.291Z,13.50
2019-03-10T02:19:44.179Z,13.40
2019-03-10T02:22:19.025Z,13.40
2019-03-10T02:24:53.754Z,13.40
2019-03-10T02:27:28.596Z,13.40
2019-03-10T02:30:03.537Z,13.30
2019-03-10T02:32:39.479Z,13.30
2019-03-10T02:35:14.374Z,13.30
2019-03-10T02:37:49.210Z,13.10
2019-03-10T02:40:23.985Z,12.90
2019-03-10T02:42:58.846Z,12.90
2019-03-10T02:45:33.578Z,12.80
2019-03-10T02:48:08.390Z,12.70
2019-03-10T02:50:43.187Z,12.70
2019-03-10T02:53:17.941Z,12.60
2019-03-10T02:55:52.757Z,12.60
2019-03-10T02:58:27.527Z,12.60
2019-03-10T03:01:02.417Z,12.60
2019-03-10T03:03:38.136Z,12.50
2019-03-10T03:06:12.947Z,12.40
2019-03-10T03:08:47.716Z,12.40
2019-03-10T03:11:22.612Z,12.50
2019-03-10T03:13:57.396Z,12.50
2019-03-10T03:16:33.188Z,12.50
2019-03-10T03:19:08.136Z,12.40
2019-03-10T03:21:43.957Z,12.50
2019-03-10T03:24:18.847Z,12.50
2019-03-10T03:26:53.679Z,12.40
2019-03-10T03:29:28.449Z,12.50
2019-03-10T03:32:03.348Z,12.40
2019-03-10T03:34:38.141Z,12.30
2019-03-10T03:37:16.233Z,12.30
2019-03-10T03:39:52.996Z,12.30
2019-03-10T03:42:27.759Z,12.30
2019-03-10T03:45:02.637Z,12.30
2019-03-10T03:47:37.398Z,12.20
2019-03-10T03:50:12.295Z,12.20
2019-03-10T03:52:47.040Z,12.30
2019-03-10T03:55:22.843Z,12.30
2019-03-10T03:57:57.776Z,12.20
2019-03-10T04:00:32.586Z,12.30
2019-03-10T04:03:07.432Z,12.20
2019-03-10T04:05:42.239Z,12.20
2019-03-10T04:08:16.979Z,12.30
2019-03-10T04:10:51.802Z,12.20
2019-03-10T04:13:26.623Z,12.20
2019-03-10T04:16:02.405Z,12.20
2019-03-10T04:18:37.143Z,12.20
2019-03-10T04:21:11.892Z,12.20
2019-03-10T04:23:46.639Z,12.20
2019-03-10T04:26:21.521Z,12.20
2019-03-10T04:28:56.255Z,12.30
2019-03-10T04:31:30.982Z,12.10
2019-03-10T04:34:05.810Z,12.10
2019-03-10T04:36:40.566Z,12.10
2019-03-10T04:39:15.309Z,12.00
2019-03-10T04:41:50.147Z,11.90
2019-03-10T04:44:24.891Z,11.80
2019-03-10T04:46:59.634Z,11.80
2019-03-10T04:49:34.375Z,11.90
2019-03-10T04:52:09.128Z,12.00
2019-03-10T04:55:15.491Z,11.90
2019-03-10T04:57:58.542Z,12.00
2019-03-10T05:00:34.934Z,12.00
2019-03-10T05:03:09.646Z,12.00
2019-03-10T05:05:44.470Z,11.90
2019-03-10T05:08:19.199Z,12.00
2019-03-10T05:10:53.969Z,12.00
2019-03-10T05:13:28.834Z,12.00
2019-03-10T05:16:03.666Z,12.10
2019-03-10T05:18:38.402Z,12.10
2019-03-10T05:21:13.155Z,12.10
2019-03-10T05:23:47.923Z,12.20
2019-03-10T05:26:22.687Z,12.20
2019-03-10T05:28:57.428Z,12.20
2019-03-10T05:31:32.249Z,12.20
2019-03-10T05:34:07.048Z,12.20
2019-03-10T05:36:41.942Z,12.30
2019-03-10T05:39:16.662Z,12.40
2019-03-10T05:41:51.419Z,12.40
2019-03-10T05:44:26.251Z,12.40
2019-03-10T05:47:01.010Z,12.40
2019-03-10T05:49:35.746Z,12.40
2019-03-10T05:52:10.491Z,12.40
2019-03-10T05:54:45.234Z,12.40
2019-03-10T05:57:20.050Z,12.50
2019-03-10T05:59:54.802Z,12.40
2019-03-10T06:02:29.555Z,12.60
2019-03-10T06:05:06.020Z,12.60
2019-03-10T06:07:40.970Z,12.60
2019-03-10T06:10:15.720Z,12.60
2019-03-10T06:12:50.446Z,12.60
2019-03-10T06:15:25.262Z,12.70
2019-03-10T06:18:00.007Z,12.70
2019-03-10T06:20:35.792Z,12.80
2019-03-10T06:23:10.687Z,12.80
2019-03-10T06:25:45.430Z,12.80
2019-03-10T06:28:20.230Z,12.90
2019-03-10T06:30:56.473Z,13.00
2019-03-10T06:33:31.406Z,13.10
2019-03-10T06:36:06.269Z,13.10
2019-03-10T06:38:41.007Z,13.10
2019-03-10T06:41:15.854Z,13.20
2019-03-10T06:43:50.592Z,13.20
2019-03-10T06:46:25.354Z,13.20
2019-03-10T06:49:00.581Z,13.20
2019-03-10T06:51:35.418Z,13.20
2019-03-10T06:54:11.227Z,13.30
2019-03-10T06:56:45.968Z,13.30
2019-03-10T06:59:20.746Z,13.30
2019-03-10T07:01:55.516Z,13.40
2019-03-10T07:04:30.248Z,13.40
2019-03-10T07:07:05.066Z,13.40
2019-03-10T07:09:40.942Z,13.40
2019-03-10T07:12:15.747Z,13.50
2019-03-10T07:14:50.551Z,13.50
2019-03-10T07:17:25.355Z,13.50
2019-03-10T07:20:00.319Z,13.30
2019-03-10T07:22:35.171Z,13.40
2019-03-10T07:25:10.199Z,13.40
2019-03-10T07:27:51.518Z,13.40
2019-03-10T07:30:57.494Z,13.40
2019-03-10T07:33:50.066Z,13.40
2019-03-10T07:36:32.415Z,13.40
2019-03-10T07:39:17.739Z,13.40
2019-03-10T07:41:58.398Z,13.40
2019-03-10T07:44:38.491Z,13.50
2019-03-10T07:47:31.606Z,13.40
2019-03-10T07:50:21.614Z,13.50
2019-03-10T07:53:03.998Z,13.50
2019-03-10T07:55:56.965Z,13.40
2019-03-10T07:58:53.674Z,13.40
2019-03-10T08:02:07.466Z,13.40
2019-03-10T08:04:58.671Z,13.40
2019-03-10T08:07:44.347Z,13.40
2019-03-10T08:13:53.494Z,13.40
2019-03-10T08:16:40.168Z,13.40
2019-03-10T08:19:23.784Z,13.50
2019-03-10T08:22:23.807Z,13.50
2019-03-10T08:25:13.426Z,13.40
2019-03-10T08:28:15.634Z,13.50
2019-03-10T08:31:09.431Z,13.50
2019-03-10T08:34:13.717Z,13.40
2019-03-10T08:37:22.582Z,13.50
2019-03-10T08:40:25.555Z,13.40
2019-03-10T08:43:29.567Z,13.50
2019-03-10T08:46:22.004Z,13.40
2019-03-10T08:49:07.138Z,13.40
2019-03-10T08:51:56.235Z,13.30
2019-03-10T08:54:35.439Z,13.30
2019-03-10T08:57:23.807Z,13.30
2019-03-10T09:00:17.710Z,13.30
2019-03-10T09:03:13.709Z,13.30
2019-03-10T09:06:00.699Z,13.40
2019-03-10T09:08:46.619Z,13.40
2019-03-10T09:11:45.098Z,13.40
2019-03-10T09:14:41.729Z,13.40
2019-03-10T09:17:26.418Z,13.40
2019-03-10T09:20:14.016Z,13.40
2019-03-10T09:23:16.895Z,13.40
2019-03-10T09:26:10.888Z,13.40
2019-03-10T09:29:10.811Z,13.40
2019-03-10T09:32:07.999Z,13.40
2019-03-10T09:35:08.098Z,13.40
2019-03-10T09:37:54.683Z,13.30
2019-03-10T09:40:54.438Z,13.30
2019-03-10T09:43:46.927Z,13.40
2019-03-10T09:46:26.907Z,13.30
2019-03-10T09:49:19.456Z,13.40
2019-03-10T09:52:28.358Z,13.40
2019-03-10T09:55:11.815Z,13.40
2019-03-10T09:58:01.350Z,13.40
2019-03-10T10:00:55.967Z,13.40
2019-03-10T10:03:53.542Z,13.50
2019-03-10T10:06:54.891Z,13.50
2019-03-10T10:09:45.807Z,13.60
2019-03-10T10:12:45.826Z,13.50
2019-03-10T10:15:52.579Z,13.60
2019-03-10T10:18:51.680Z,13.60
2019-03-10T10:21:34.302Z,13.60
2019-03-10T10:24:38.486Z,13.60
2019-03-10T10:27:21.315Z,13.70
2019-03-10T10:30:20.275Z,13.60
2019-03-10T10:33:13.307Z,13.70
2019-03-10T10:36:25.658Z,13.70
2019-03-10T10:39:47.222Z,13.70
2019-03-10T10:46:29.391Z,13.90
2019-03-10T10:49:37.987Z,13.90
2019-03-10T10:52:36.841Z,13.90
2019-03-10T10:55:45.564Z,14.00
2019-03-10T10:58:34.364Z,14.00
2019-03-10T11:01:25.401Z,14.10
2019-03-10T11:04:17.622Z,14.20
2019-03-10T11:07:07.078Z,14.20
2019-03-10T11:09:57.486Z,14.30
2019-03-10T11:12:51.291Z,14.30
2019-03-10T11:15:48.226Z,14.30
2019-03-10T11:18:39.349Z,14.30
2019-03-10T11:21:23.601Z,14.40
2019-03-10T11:24:07.334Z,14.40
2019-03-10T11:27:00.075Z,14.50
2019-03-10T11:29:56.915Z,14.50
2019-03-10T11:32:41.959Z,14.60
2019-03-10T11:35:31.056Z,14.50
2019-03-10T11:38:20.972Z,14.50
2019-03-10T11:41:44.248Z,14.50
2019-03-10T11:44:28.983Z,14.60
2019-03-10T11:47:27.059Z,14.60
2019-03-10T11:50:43.224Z,14.60
2019-03-10T11:53:45.919Z,14.70
2019-03-10T11:56:47.134Z,14.80
2019-03-10T11:59:46.863Z,14.80
2019-03-10T12:02:36.980Z,14.80
2019-03-10T12:05:19.814Z,14.80
2019-03-10T12:08:31.930Z,14.60
2019-03-10T12:11:07.181Z,14.70
2019-03-10T12:13:52.923Z,14.70
2019-03-10T12:16:31.195Z,14.70
2019-03-10T12:19:06.980Z,14.90
2019-03-10T12:21:42.014Z,15.10
2019-03-10T12:24:16.918Z,15.20
2019-03-10T12:26:51.804Z,15.30
2019-03-10T12:29:26.646Z,15.50
2019-03-10T12:32:03.831Z,15.60
2019-03-10T12:34:39.594Z,15.60
2019-03-10T12:37:18.943Z,15.60
2019-03-10T12:39:53.662Z,15.70
2019-03-10T12:42:28.601Z,15.70
2019-03-10T12:45:03.500Z,15.70
2019-03-10T12:47:39.362Z,15.80
2019-03-10T12:50:14.463Z,15.90
2019-03-10T12:52:49.277Z,15.90
2019-03-10T12:55:24.137Z,16.00
2019-03-10T12:57:58.964Z,16.00
2019-03-10T13:00:33.697Z,16.10
2019-03-10T13:03:08.615Z,16.20
2019-03-10T13:05:43.479Z,16.10
2019-03-10T13:08:18.310Z,16.10
2019-03-10T13:10:53.039Z,16.20
2019-03-10T13:13:27.912Z,16.00
2019-03-10T13:16:02.706Z,16.00
2019-03-10T13:18:37.459Z,16.20
2019-03-10T13:21:12.199Z,16.00
2019-03-10T13:23:47.063Z,15.90
2019-03-10T13:26:21.903Z,16.00
2019-03-10T13:28:56.658Z,16.00
2019-03-10T13:31:32.370Z,15.90
2019-03-10T13:34:07.276Z,16.10
2019-03-10T13:36:42.085Z,15.90
2019-03-10T13:39:16.810Z,16.00
2019-03-10T13:41:51.584Z,16.20
2019-03-10T13:44:26.407Z,16.10
2019-03-10T13:47:01.227Z,16.10
2019-03-10T13:49:35.991Z,16.40
2019-03-10T13:52:10.750Z,16.30
2019-03-10T13:54:45.482Z,16.40
2019-03-10T13:57:20.292Z,16.40
2019-03-10T13:59:55.087Z,16.50
2019-03-10T14:02:30.013Z,16.50
2019-03-10T14:05:05.718Z,16.30
2019-03-10T14:07:40.516Z,16.20
2019-03-10T14:10:15.395Z,16.30
2019-03-10T14:12:50.466Z,16.20
2019-03-10T14:15:25.727Z,16.10
2019-03-10T14:18:00.579Z,16.20
2019-03-10T14:20:35.408Z,16.20
2019-03-10T14:23:10.328Z,16.10
2019-03-10T14:25:45.247Z,16.10
2019-03-10T14:28:22.155Z,16.00
2019-03-10T14:30:56.749Z,16.00
2019-03-10T14:33:31.499Z,15.90
2019-03-10T14:36:06.376Z,15.90
2019-03-10T14:38:41.179Z,15.90
2019-03-10T14:41:15.994Z,15.60
2019-03-10T14:43:50.814Z,15.60
2019-03-10T14:46:25.682Z,15.70
2019-03-10T14:49:00.490Z,15.60
2019-03-10T14:51:35.310Z,15.70
2019-03-10T14:54:10.114Z,15.50
2019-03-10T14:56:44.954Z,15.60
2019-03-10T14:59:20.401Z,15.40
2019-03-10T15:01:55.447Z,15.50
2019-03-10T15:04:30.368Z,15.40
2019-03-10T15:07:05.213Z,15.40
2019-03-10T15:09:40.102Z,15.40
2019-03-10T15:12:14.966Z,15.50
2019-03-10T15:14:49.823Z,15.60
2019-03-10T15:17:24.668Z,15.50
2019-03-10T15:19:59.420Z,15.50
2019-03-10T15:22:34.184Z,15.40
2019-03-10T15:25:10.190Z,15.40
2019-03-10T15:27:45.074Z,15.60
2019-03-10T15:30:19.940Z,15.60
2019-03-10T15:32:54.802Z,15.70
2019-03-10T15:35:29.563Z,15.70
2019-03-10T15:38:04.379Z,15.80
2019-03-10T15:40:39.515Z,15.60
2019-03-10T15:43:14.334Z,15.10
2019-03-10T15:45:49.235Z,15.10
2019-03-10T15:48:23.971Z,15.10
2019-03-10T15:50:58.763Z,15.00
2019-03-10T15:53:33.619Z,14.90
2019-03-10T15:56:08.447Z,14.90
2019-03-10T15:58:43.459Z,14.80
2019-03-10T16:01:18.234Z,14.70
2019-03-10T16:03:53.083Z,14.70
2019-03-10T16:06:27.810Z,14.70
2019-03-10T16:09:02.701Z,14.70
2019-03-10T16:11:39.165Z,14.50
2019-03-10T16:14:14.154Z,14.50
2019-03-10T16:16:48.979Z,14.50
2019-03-10T16:19:23.848Z,14.30
2019-03-10T16:21:58.944Z,14.20
2019-03-10T16:24:35.294Z,14.30
2019-03-10T16:27:10.256Z,14.20
2019-03-10T16:29:45.078Z,14.20
2019-03-10T16:32:19.913Z,13.90
2019-03-10T16:34:54.795Z,13.90
2019-03-10T16:37:29.546Z,13.90
2019-03-10T16:40:05.495Z,14.00
2019-03-10T16:42:40.239Z,14.00
2019-03-10T16:45:17.099Z,14.00
2019-03-10T16:47:52.030Z,14.10
2019-03-10T16:50:28.057Z,13.90
2019-03-10T16:53:03.847Z,13.80
2019-03-10T16:55:38.595Z,13.70
2019-03-10T16:58:13.319Z,13.70
2019-03-10T17:00:48.247Z,13.70
2019-03-10T17:03:23.069Z,13.80
2019-03-10T17:05:57.870Z,13.70
2019-03-10T17:08:32.674Z,13.70
2019-03-10T17:11:07.587Z,13.70
2019-03-10T17:13:42.391Z,13.80
2019-03-10T17:16:17.214Z,13.80
2019-03-10T17:18:51.967Z,13.80
2019-03-10T17:21:26.707Z,13.90
2019-03-10T17:24:01.455Z,13.80
2019-03-10T17:26:36.270Z,13.80
2019-03-10T17:29:11.099Z,13.80
2019-03-10T17:31:45.836Z,13.60
2019-03-10T17:34:20.574Z,13.60
2019-03-10T17:36:55.447Z,13.50
2019-03-10T17:39:36.109Z,13.50
2019-03-10T17:42:10.995Z,13.50
2019-03-10T17:44:45.927Z,13.40
2019-03-10T17:47:20.835Z,13.40
2019-03-10T17:49:55.714Z,13.50
2019-03-10T17:52:30.483Z,13.50
2019-03-10T17:55:06.419Z,13.30
2019-03-10T17:57:41.215Z,13.20
2019-03-10T18:00:17.798Z,13.00
2019-03-10T18:02:52.687Z,12.90
2019-03-10T18:05:29.690Z,12.90
2019-03-10T18:08:04.511Z,12.80
2019-03-10T18:10:39.289Z,12.70
2019-03-10T18:13:14.296Z,12.70
2019-03-10T18:15:49.119Z,12.70
2019-03-10T18:18:23.922Z,12.60
2019-03-10T18:20:59.823Z,12.40
2019-03-10T18:23:34.779Z,12.10
2019-03-10T18:26:10.123Z,12.20
2019-03-10T18:28:46.487Z,12.10
2019-03-10T18:31:22.313Z,12.10
2019-03-10T18:33:57.121Z,12.00
2019-03-10T18:36:33.752Z,12.00
2019-03-10T18:39:08.802Z,12.00
2019-03-10T18:41:45.194Z,12.00
2019-03-10T18:44:19.944Z,11.80
2019-03-10T18:46:55.538Z,11.90
2019-03-10T18:49:31.902Z,11.80
2019-03-10T18:52:06.771Z,11.90
2019-03-10T18:54:41.523Z,11.90
2019-03-10T18:57:24.186Z,11.80
2019-03-10T18:59:59.044Z,11.80
2019-03-10T19:02:33.870Z,11.80
2019-03-10T19:05:08.832Z,11.90
2019-03-10T19:07:43.596Z,11.80
2019-03-10T19:10:18.403Z,11.80
2019-03-10T19:12:53.463Z,11.80
2019-03-10T19:15:29.092Z,11.90
2019-03-10T19:18:04.709Z,11.90
2019-03-10T19:20:39.904Z,12.00
2019-03-10T19:23:14.706Z,11.90
2019-03-10T19:25:49.596Z,12.00
2019-03-10T19:28:24.342Z,11.90
2019-03-10T19:30:59.228Z,11.60
2019-03-10T19:33:34.381Z,11.70
2019-03-10T19:36:09.175Z,11.80
2019-03-10T19:38:44.112Z,11.80
2019-03-10T19:41:19.151Z,11.70
2019-03-10T19:43:53.982Z,11.70
2019-03-10T19:46:29.547Z,11.60
2019-03-10T19:49:04.594Z,11.60
2019-03-10T19:51:39.976Z,11.70
2019-03-10T19:54:15.131Z,11.80
2019-03-10T19:56:50.303Z,11.70
2019-03-10T19:59:26.270Z,11.60
2019-03-10T20:02:01.110Z,11.40
2019-03-10T20:04:36.106Z,11.30
2019-03-10T20:07:10.905Z,11.40
2019-03-10T20:09:45.701Z,11.20
2019-03-10T20:12:20.597Z,11.20
2019-03-10T20:14:55.362Z,10.90
2019-03-10T20:17:30.166Z,10.80
2019-03-10T20:20:05.960Z,10.70
2019-03-10T20:22:40.826Z,10.80
2019-03-10T20:25:15.803Z,10.70
2019-03-10T20:27:51.549Z,10.70
2019-03-10T20:30:26.767Z,10.80
2019-03-10T20:33:01.591Z,10.80
2019-03-10T20:35:36.394Z,10.80
2019-03-10T20:38:11.206Z,10.80
2019-03-10T20:40:45.932Z,10.80
2019-03-10T20:43:20.766Z,10.60
2019-03-10T20:45:55.567Z,10.60
2019-03-10T20:48:30.395Z,10.60
2019-03-10T20:51:05.440Z,10.50
2019-03-10T20:53:41.562Z,10.40
2019-03-10T20:56:16.294Z,10.50
2019-03-10T20:58:51.107Z,10.70
2019-03-10T21:01:26.043Z,10.60
2019-03-10T21:04:01.537Z,10.40
2019-03-10T21:06:37.478Z,10.40
2019-03-10T21:09:14.562Z,10.50
2019-03-10T21:11:55.383Z,10.40
2019-03-10T21:14:30.141Z,10.40
2019-03-10T21:17:04.961Z,10.40
2019-03-10T21:19:39.746Z,10.50
2019-03-10T21:22:14.602Z,10.50
2019-03-10T21:24:49.408Z,10.50
2019-03-10T21:27:24.246Z,10.50
2019-03-10T21:29:58.978Z,10.50
2019-03-10T21:32:33.800Z,10.60
2019-03-10T21:35:17.212Z,10.40
2019-03-10T21:37:45.255Z,10.40
2019-03-10T21:40:21.683Z,10.40
2019-03-10T21:42:56.498Z,10.30
2019-03-10T21:45:31.451Z,10.30
2019-03-10T21:48:06.434Z,10.30
2019-03-10T21:50:41.171Z,10.40
2019-03-10T21:53:16.043Z,10.10
2019-03-10T21:55:50.782Z,10.10
2019-03-10T21:58:26.930Z,10.10
2019-03-10T22:01:02.488Z,10.00
2019-03-10T22:03:37.295Z,10.10
2019-03-10T22:06:12.043Z,10.10
2019-03-10T22:08:52.786Z,10.10
2019-03-10T22:11:27.582Z,10.00
2019-03-10T22:14:02.407Z,9.80
2019-03-10T22:16:37.161Z,9.90
2019-03-10T22:19:22.193Z,10.00
2019-03-10T22:21:48.411Z,9.90
2019-03-10T22:24:23.214Z,9.90
2019-03-10T22:26:58.026Z,9.80
2019-03-10T22:29:32.830Z,9.70
2019-03-10T22:32:07.550Z,9.60
2019-03-10T22:34:42.366Z,9.50
2019-03-10T22:37:17.099Z,9.60
2019-03-10T22:39:51.923Z,9.30
2019-03-10T22:42:26.707Z,9.40
2019-03-10T22:45:01.436Z,9.40
2019-03-10T22:47:36.251Z,9.40
2019-03-10T22:50:11.859Z,9.40
2019-03-10T22:52:47.748Z,9.40
2019-03-10T22:55:22.565Z,9.40
2019-03-10T22:57:57.399Z,9.60
2019-03-10T23:00:44.349Z,9.60
2019-03-10T23:03:20.807Z,9.70
2019-03-10T23:05:55.614Z,9.70
2019-03-10T23:08:30.338Z,9.70
2019-03-10T23:11:05.155Z,9.70
2019-03-10T23:13:39.882Z,9.80
2019-03-10T23:16:14.688Z,9.90
2019-03-10T23:18:49.473Z,9.80
2019-03-10T23:21:24.316Z,9.80
2019-03-10T23:23:59.127Z,9.70
2019-03-10T23:26:34.702Z,9.70
2019-03-10T23:29:09.469Z,9.60
2019-03-10T23:31:44.197Z,9.70
2019-03-10T23:34:18.939Z,9.50
2019-03-10T23:36:53.663Z,9.60
2019-03-10T23:39:28.491Z,9.60
2019-03-10T23:42:03.304Z,9.60
2019-03-10T23:44:38.019Z,9.50
2019-03-10T23:47:12.758Z,9.60
2019-03-10T23:49:47.574Z,9.60
2019-03-10T23:52:22.388Z,9.60
2019-03-10T23:54:57.210Z,9.40
2019-03-10T23:57:32.022Z,9.50
